createdAt,value
2018-03-14T00:01:52.515Z,12.77
2018-03-14T00:04:18.738Z,15.17
2018-03-14T00:06:44.870Z,13.93
2018-03-14T00:09:10.929Z,10.40
2018-03-14T00:11:37.122Z,13.77
2018-03-14T00:14:03.999Z,13.87
2018-03-14T00:16:30.084Z,12.70
2018-03-14T00:18:56.194Z,11.00
2018-03-14T00:21:22.342Z,12.60
2018-03-14T00:23:48.423Z,12.03
2018-03-14T00:26:14.483Z,12.23
2018-03-14T00:28:41.497Z,13.33
2018-03-14T00:31:07.696Z,13.70
2018-03-14T00:33:33.894Z,13.13
2018-03-14T00:36:00.815Z,11.13
2018-03-14T00:38:26.869Z,11.43
2018-03-14T00:40:54.040Z,12.93
2018-03-14T00:43:20.915Z,11.33
2018-03-14T00:45:47.741Z,12.10
2018-03-14T00:48:13.822Z,10.70
2018-03-14T00:50:39.979Z,11.50
2018-03-14T00:53:07.681Z,11.10
2018-03-14T00:55:33.802Z,13.10
2018-03-14T00:58:00.158Z,9.33
2018-03-14T01:00:27.058Z,9.73
2018-03-14T01:02:53.204Z,11.37
2018-03-14T01:05:19.348Z,11.33
2018-03-14T01:07:45.498Z,13.20
2018-03-14T01:10:11.580Z,11.20
2018-03-14T01:12:38.113Z,11.03
2018-03-14T01:15:04.303Z,10.30
2018-03-14T01:17:30.376Z,13.50
2018-03-14T01:19:57.277Z,10.47
2018-03-14T01:22:23.430Z,11.10
2018-03-14T01:24:49.593Z,12.00
2018-03-14T01:27:15.735Z,11.77
2018-03-14T01:29:41.814Z,13.10
2018-03-14T01:32:07.906Z,12.10
2018-03-14T01:34:34.131Z,13.70
2018-03-14T01:37:00.615Z,13.00
2018-03-14T01:39:27.519Z,12.20
2018-03-14T01:41:53.625Z,11.03
2018-03-14T01:44:20.543Z,11.93
2018-03-14T01:46:46.594Z,12.67
2018-03-14T01:49:12.723Z,11.30
2018-03-14T01:51:39.568Z,12.23
2018-03-14T01:54:06.383Z,12.70
2018-03-14T01:56:32.448Z,14.93
2018-03-14T01:58:59.323Z,18.20
2018-03-14T02:01:25.413Z,11.37
2018-03-14T02:03:51.527Z,14.00
2018-03-14T02:06:17.662Z,16.90
2018-03-14T02:08:43.750Z,13.17
2018-03-14T02:11:09.891Z,15.33
2018-03-14T02:13:35.959Z,14.47
2018-03-14T02:16:02.161Z,17.53
2018-03-14T02:18:28.709Z,15.10
2018-03-14T02:20:54.930Z,14.57
2018-03-14T02:23:21.232Z,16.70
2018-03-14T02:25:47.650Z,18.57
2018-03-14T02:28:13.824Z,17.30
2018-03-14T02:30:39.935Z,12.20
2018-03-14T02:33:06.751Z,15.03
2018-03-14T02:35:33.205Z,14.67
2018-03-14T02:38:00.115Z,11.83
2018-03-14T02:40:26.238Z,16.83
2018-03-14T02:42:52.419Z,16.67
2018-03-14T02:45:18.452Z,15.50
2018-03-14T02:47:45.497Z,17.33
2018-03-14T02:50:12.339Z,17.30
2018-03-14T02:52:38.832Z,15.70
2018-03-14T02:55:05.074Z,17.23
2018-03-14T02:57:31.234Z,16.93
2018-03-14T02:59:57.417Z,16.20
2018-03-14T03:02:23.584Z,19.03
2018-03-14T03:04:49.812Z,14.83
2018-03-14T03:07:16.307Z,17.30
2018-03-14T03:09:43.678Z,15.70
2018-03-14T03:12:10.930Z,16.57
2018-03-14T03:14:38.776Z,15.30
2018-03-14T03:17:04.900Z,16.13
2018-03-14T03:19:31.128Z,18.20
2018-03-14T03:21:58.392Z,16.13
2018-03-14T03:24:24.766Z,18.00
2018-03-14T03:26:51.448Z,17.37
2018-03-14T03:29:17.644Z,15.97
2018-03-14T03:31:44.565Z,17.97
2018-03-14T03:34:10.756Z,16.60
2018-03-14T03:36:36.819Z,14.90
2018-03-14T03:39:02.922Z,17.73
2018-03-14T03:41:29.183Z,15.57
2018-03-14T03:43:55.258Z,17.43
2018-03-14T03:46:21.697Z,14.50
2018-03-14T03:48:48.131Z,18.03
2018-03-14T03:51:14.948Z,15.53
2018-03-14T03:53:41.063Z,17.57
2018-03-14T03:56:07.313Z,18.37
2018-03-14T03:58:33.414Z,17.10
2018-03-14T04:00:59.545Z,19.53
2018-03-14T04:03:25.622Z,19.23
2018-03-14T04:05:51.887Z,14.90
2018-03-14T04:08:17.992Z,18.70
2018-03-14T04:10:44.779Z,15.00
2018-03-14T04:13:10.855Z,16.60
2018-03-14T04:15:36.906Z,15.33
2018-03-14T04:18:03.743Z,18.87
2018-03-14T04:20:30.518Z,18.90
2018-03-14T04:22:56.570Z,17.63
2018-03-14T04:27:56.699Z,15.53
2018-03-14T04:30:22.762Z,16.50
2018-03-14T04:32:48.900Z,16.17
2018-03-14T04:35:14.986Z,16.97
2018-03-14T04:37:41.044Z,15.00
2018-03-14T04:40:07.147Z,18.93
2018-03-14T04:42:33.285Z,15.07
2018-03-14T04:45:00.200Z,14.53
2018-03-14T04:47:26.273Z,15.33
2018-03-14T04:49:52.665Z,13.83
2018-03-14T04:52:19.657Z,13.47
2018-03-14T04:54:46.039Z,14.20
2018-03-14T04:57:12.166Z,14.23
2018-03-14T04:59:39.242Z,18.03
2018-03-14T05:02:06.800Z,15.30
2018-03-14T05:04:34.205Z,13.63
2018-03-14T05:07:00.306Z,15.23
2018-03-14T05:09:26.538Z,18.40
2018-03-14T05:11:53.356Z,16.73
2018-03-14T05:14:19.579Z,16.03
2018-03-14T05:16:45.744Z,16.00
2018-03-14T05:19:11.879Z,16.53
2018-03-14T05:21:38.672Z,15.00
2018-03-14T05:24:04.788Z,13.87
2018-03-14T05:26:30.925Z,12.10
2018-03-14T05:28:57.127Z,14.33
2018-03-14T05:31:24.087Z,15.00
2018-03-14T05:33:50.329Z,14.13
2018-03-14T05:36:17.484Z,17.03
2018-03-14T05:38:43.742Z,16.57
2018-03-14T05:41:10.163Z,15.63
2018-03-14T05:43:36.332Z,22.30
2018-03-14T05:46:02.587Z,12.00
2018-03-14T05:48:29.455Z,16.60
2018-03-14T05:50:57.178Z,17.50
2018-03-14T05:53:23.406Z,17.37
2018-03-14T05:55:49.523Z,14.60
2018-03-14T05:58:15.619Z,16.33
2018-03-14T06:00:42.460Z,16.40
2018-03-14T06:03:09.405Z,15.77
2018-03-14T06:05:35.934Z,18.87
2018-03-14T06:08:03.039Z,15.77
2018-03-14T06:10:29.126Z,19.10
2018-03-14T06:12:55.215Z,18.17
2018-03-14T06:15:21.307Z,19.50
2018-03-14T06:17:47.409Z,16.70
2018-03-14T06:20:13.542Z,16.07
2018-03-14T06:22:39.668Z,16.50
2018-03-14T06:25:05.727Z,16.07
2018-03-14T06:27:32.190Z,15.37
2018-03-14T06:29:58.307Z,20.53
2018-03-14T06:32:24.524Z,15.13
2018-03-14T06:34:50.618Z,20.90
2018-03-14T06:37:17.961Z,18.40
2018-03-14T06:39:44.125Z,15.60
2018-03-14T06:42:10.266Z,15.97
2018-03-14T06:47:10.408Z,15.03
2018-03-14T06:49:36.541Z,21.13
2018-03-14T06:52:02.634Z,17.10
2018-03-14T06:54:28.802Z,15.70
2018-03-14T06:56:54.874Z,15.13
2018-03-14T06:59:38.215Z,16.13
2018-03-14T07:02:16.639Z,17.50
2018-03-14T07:04:59.958Z,14.43
2018-03-14T07:07:26.103Z,18.33
2018-03-14T07:09:52.273Z,16.87
2018-03-14T07:12:19.738Z,13.63
2018-03-14T07:14:47.563Z,13.10
2018-03-14T07:17:13.800Z,20.90
2018-03-14T07:19:39.939Z,15.63
2018-03-14T07:22:06.045Z,17.60
2018-03-14T07:24:32.334Z,13.80
2018-03-14T07:26:58.662Z,16.90
2018-03-14T07:29:25.113Z,22.10
2018-03-14T07:31:51.346Z,13.57
2018-03-14T07:34:17.780Z,15.67
2018-03-14T07:36:44.666Z,15.60
2018-03-14T07:39:11.696Z,18.33
2018-03-14T07:41:39.191Z,21.30
2018-03-14T07:44:05.487Z,14.03
2018-03-14T07:46:33.347Z,17.27
2018-03-14T07:48:59.922Z,17.30
2018-03-14T07:51:26.339Z,18.37
2018-03-14T07:53:52.415Z,27.83
2018-03-14T07:56:18.648Z,14.50
2018-03-14T07:58:44.784Z,19.80
2018-03-14T08:01:11.787Z,15.63
2018-03-14T08:03:38.302Z,17.80
2018-03-14T08:06:04.468Z,15.37
2018-03-14T08:08:31.392Z,20.40
2018-03-14T08:10:58.955Z,18.90
2018-03-14T08:13:25.312Z,15.97
2018-03-14T08:15:51.528Z,18.40
2018-03-14T08:18:17.629Z,19.30
2018-03-14T08:20:44.410Z,16.23
2018-03-14T08:23:12.755Z,17.30
2018-03-14T08:25:39.209Z,17.87
2018-03-14T08:28:05.391Z,23.07
2018-03-14T08:30:31.538Z,18.20
2018-03-14T08:32:57.687Z,16.80
2018-03-14T08:35:24.655Z,17.63
2018-03-14T08:37:50.920Z,18.63
2018-03-14T08:40:17.040Z,18.87
2018-03-14T08:42:43.143Z,22.20
2018-03-14T08:45:09.246Z,20.03
2018-03-14T08:47:35.316Z,19.97
2018-03-14T08:50:02.289Z,20.00
2018-03-14T08:52:28.413Z,19.87
2018-03-14T08:54:54.528Z,26.13
2018-03-14T08:57:21.466Z,21.37
2018-03-14T08:59:47.647Z,20.83
2018-03-14T09:02:14.534Z,18.67
2018-03-14T09:04:40.671Z,28.70
2018-03-14T09:07:06.800Z,20.40
2018-03-14T09:09:32.945Z,20.40
2018-03-14T09:11:59.305Z,18.60
2018-03-14T09:14:25.583Z,20.10
2018-03-14T09:16:51.980Z,21.80
2018-03-14T09:19:20.247Z,27.77
2018-03-14T09:21:46.326Z,23.17
2018-03-14T09:24:13.160Z,24.83
2018-03-14T09:26:40.514Z,19.47
2018-03-14T09:29:07.434Z,26.00
2018-03-14T09:31:33.572Z,19.23
2018-03-14T09:33:59.699Z,21.77
2018-03-14T09:36:26.902Z,26.00
2018-03-14T09:38:53.698Z,25.27
2018-03-14T09:41:19.814Z,21.90
2018-03-14T09:43:45.938Z,18.87
2018-03-14T09:46:11.973Z,21.30
2018-03-14T09:48:38.039Z,22.17
2018-03-14T09:51:04.728Z,22.13
2018-03-14T09:53:30.752Z,22.10
2018-03-14T09:55:56.865Z,17.63
2018-03-14T09:58:22.918Z,22.77
2018-03-14T10:00:49.066Z,23.10
2018-03-14T10:03:15.550Z,23.63
2018-03-14T10:05:41.600Z,23.63
2018-03-14T10:08:08.364Z,20.70
2018-03-14T10:10:34.439Z,19.20
2018-03-14T10:13:00.701Z,24.27
2018-03-14T10:15:26.804Z,20.83
2018-03-14T10:17:52.885Z,18.50
2018-03-14T10:20:19.053Z,18.40
2018-03-14T10:22:45.186Z,24.00
2018-03-14T10:25:11.295Z,20.10
2018-03-14T10:27:37.577Z,18.27
2018-03-14T10:30:04.006Z,21.40
2018-03-14T10:32:31.609Z,20.60
2018-03-14T10:34:57.863Z,18.90
2018-03-14T10:37:23.906Z,19.00
2018-03-14T10:39:50.048Z,19.00
2018-03-14T10:42:16.158Z,15.70
2018-03-14T10:44:42.337Z,21.27
2018-03-14T10:47:08.462Z,18.80
2018-03-14T10:49:34.891Z,19.50
2018-03-14T10:52:00.948Z,19.97
2018-03-14T10:54:27.122Z,19.20
2018-03-14T10:56:54.051Z,19.27
2018-03-14T10:59:20.938Z,16.43
2018-03-14T11:01:47.007Z,17.27
2018-03-14T11:04:13.457Z,13.33
2018-03-14T11:06:39.545Z,14.60
2018-03-14T11:09:06.673Z,13.10
2018-03-14T11:11:32.845Z,11.17
2018-03-14T11:13:58.961Z,10.93
2018-03-14T11:16:25.315Z,11.00
2018-03-14T11:18:51.608Z,10.97
2018-03-14T11:21:17.815Z,9.83
2018-03-14T11:23:43.970Z,14.03
2018-03-14T11:26:10.243Z,10.50
2018-03-14T11:28:36.266Z,10.27
2018-03-14T11:31:02.315Z,11.17
2018-03-14T11:33:28.458Z,10.33
2018-03-14T11:35:54.620Z,13.43
2018-03-14T11:38:20.875Z,12.50
2018-03-14T11:40:48.329Z,15.10
2018-03-14T11:43:14.838Z,14.47
2018-03-14T11:45:41.865Z,10.73
2018-03-14T11:48:08.721Z,12.30
2018-03-14T11:50:34.817Z,10.37
2018-03-14T11:53:01.464Z,13.67
2018-03-14T11:55:27.562Z,13.13
2018-03-14T11:57:53.815Z,11.33
2018-03-14T12:00:19.949Z,10.13
2018-03-14T12:02:46.969Z,10.83
2018-03-14T12:05:14.757Z,9.87
2018-03-14T12:07:41.099Z,10.20
2018-03-14T12:10:07.416Z,11.33
2018-03-14T12:12:33.393Z,10.93
2018-03-14T12:14:59.707Z,14.30
2018-03-14T12:17:25.840Z,11.37
2018-03-14T12:19:51.939Z,10.40
2018-03-14T12:22:24.880Z,9.87
2018-03-14T12:24:51.280Z,12.37
2018-03-14T12:27:17.416Z,8.33
2018-03-14T12:29:43.534Z,13.60
2018-03-14T12:32:09.746Z,12.87
2018-03-14T12:34:37.859Z,9.93
2018-03-14T12:37:04.089Z,10.40
2018-03-14T12:39:30.356Z,11.47
2018-03-14T12:41:56.521Z,11.57
2018-03-14T12:44:22.645Z,10.53
2018-03-14T12:46:49.320Z,11.70
2018-03-14T12:49:17.210Z,11.00
2018-03-14T12:51:43.343Z,15.03
2018-03-14T12:54:10.283Z,16.17
2018-03-14T12:56:37.291Z,13.00
2018-03-14T12:59:03.392Z,12.60
2018-03-14T13:01:30.326Z,13.23
2018-03-14T13:03:56.398Z,14.70
2018-03-14T13:06:22.453Z,15.57
2018-03-14T13:08:49.411Z,12.67
2018-03-14T13:11:16.716Z,15.67
2018-03-14T13:13:42.944Z,13.73
2018-03-14T13:16:09.629Z,26.97
2018-03-14T13:18:36.135Z,12.90
2018-03-14T13:21:02.804Z,17.83
2018-03-14T13:23:29.917Z,17.73
2018-03-14T13:25:56.064Z,15.60
2018-03-14T13:28:22.206Z,14.30
2018-03-14T13:30:48.878Z,13.37
2018-03-14T13:33:17.971Z,14.43
2018-03-14T13:35:44.114Z,15.17
2018-03-14T13:38:11.282Z,13.20
2018-03-14T13:40:38.654Z,14.43
2018-03-14T13:43:05.637Z,17.10
2018-03-14T13:45:31.831Z,12.60
2018-03-14T13:47:58.671Z,13.37
2018-03-14T13:50:26.059Z,17.40
2018-03-14T13:52:52.899Z,13.10
2018-03-14T13:55:19.134Z,15.33
2018-03-14T13:57:45.797Z,18.20
2018-03-14T14:00:11.955Z,16.90
2018-03-14T14:02:38.161Z,18.80
2018-03-14T14:05:04.671Z,18.10
2018-03-14T14:07:31.582Z,15.73
2018-03-14T14:09:57.732Z,19.90
2018-03-14T14:12:23.895Z,15.77
2018-03-14T14:14:50.311Z,19.33
2018-03-14T14:17:16.426Z,19.03
2018-03-14T14:19:42.738Z,15.63
2018-03-14T14:22:08.956Z,20.87
2018-03-14T14:24:35.255Z,17.43
2018-03-14T14:27:02.263Z,17.30
2018-03-14T14:29:29.044Z,20.83
2018-03-14T14:31:55.106Z,19.87
2018-03-14T14:34:22.141Z,15.27
2018-03-14T14:36:49.277Z,18.80
2018-03-14T14:39:15.381Z,20.50
2018-03-14T14:41:42.403Z,21.43
2018-03-14T14:44:08.540Z,23.93
2018-03-14T14:46:34.720Z,21.30
2018-03-14T14:49:00.824Z,21.93
2018-03-14T14:51:27.009Z,21.70
2018-03-14T14:53:53.513Z,25.63
2018-03-14T14:56:19.688Z,24.37
2018-03-14T14:58:45.880Z,22.83
2018-03-14T15:01:12.040Z,18.13
2018-03-14T15:03:38.109Z,16.77
2018-03-14T15:06:04.224Z,21.30
2018-03-14T15:08:30.805Z,18.10
2018-03-14T15:10:56.880Z,17.33
2018-03-14T15:13:24.221Z,24.97
2018-03-14T15:15:50.591Z,21.27
2018-03-14T15:18:16.677Z,18.60
2018-03-14T15:20:42.726Z,19.97
2018-03-14T15:23:09.595Z,18.90
2018-03-14T15:25:35.718Z,19.50
2018-03-14T15:28:01.826Z,18.07
2018-03-14T15:30:28.053Z,18.47
2018-03-14T15:32:54.360Z,15.33
2018-03-14T15:35:21.195Z,16.67
2018-03-14T15:37:47.758Z,24.83
2018-03-14T15:40:13.787Z,17.23
2018-03-14T15:42:39.931Z,18.90
2018-03-14T15:45:05.985Z,18.37
2018-03-14T15:47:32.158Z,20.30
2018-03-14T15:49:58.829Z,17.60
2018-03-14T15:52:25.015Z,15.03
2018-03-14T15:54:51.116Z,21.37
2018-03-14T15:57:17.542Z,24.27
2018-03-14T15:59:43.772Z,16.97
2018-03-14T16:02:09.890Z,17.20
2018-03-14T16:04:35.970Z,21.87
2018-03-14T16:07:02.425Z,26.30
2018-03-14T16:09:29.173Z,24.40
2018-03-14T16:11:55.308Z,15.83
2018-03-14T16:14:22.161Z,16.70
2018-03-14T16:16:48.255Z,16.90
2018-03-14T16:19:14.633Z,19.07
2018-03-14T16:21:40.697Z,19.10
2018-03-14T16:24:06.928Z,19.80
2018-03-14T16:26:33.102Z,18.83
2018-03-14T16:29:00.438Z,21.33
2018-03-14T16:31:28.795Z,19.43
2018-03-14T16:33:55.184Z,14.33
2018-03-14T16:36:22.106Z,17.20
2018-03-14T16:38:49.745Z,17.50
2018-03-14T16:41:16.142Z,20.27
2018-03-14T16:43:42.375Z,19.97
2018-03-14T16:46:08.530Z,21.33
2018-03-14T16:48:34.642Z,17.00
2018-03-14T16:51:01.499Z,23.67
2018-03-14T16:53:29.772Z,19.07
2018-03-14T16:55:55.917Z,20.53
2018-03-14T16:58:22.640Z,22.73
2018-03-14T17:00:49.669Z,20.90
2018-03-14T17:03:16.779Z,20.10
2018-03-14T17:05:45.469Z,20.80
2018-03-14T17:08:11.637Z,18.30
2018-03-14T17:10:38.610Z,22.50
2018-03-14T17:13:07.013Z,19.07
2018-03-14T17:15:34.279Z,22.77
2018-03-14T17:18:02.955Z,18.83
2018-03-14T17:20:29.074Z,21.93
2018-03-14T17:22:56.076Z,17.00
2018-03-14T17:25:23.462Z,15.57
2018-03-14T17:27:49.608Z,18.13
2018-03-14T17:30:15.733Z,22.13
2018-03-14T17:32:42.654Z,20.57
2018-03-14T17:35:09.874Z,17.10
2018-03-14T17:37:36.721Z,20.13
2018-03-14T17:40:04.424Z,18.57
2018-03-14T17:42:30.836Z,17.70
2018-03-14T17:44:57.275Z,17.70
2018-03-14T17:47:23.435Z,22.67
2018-03-14T17:49:50.509Z,20.87
2018-03-14T17:52:16.748Z,20.33
2018-03-14T17:54:42.928Z,20.10
2018-03-14T17:57:09.232Z,19.77
2018-03-14T17:59:35.361Z,23.50
2018-03-14T18:02:01.419Z,20.03
2018-03-14T18:04:28.419Z,21.17
2018-03-14T18:06:55.636Z,20.30
2018-03-14T18:09:21.802Z,19.67
2018-03-14T18:11:47.996Z,27.93
2018-03-14T18:14:14.166Z,21.37
2018-03-14T18:16:40.285Z,20.90
2018-03-14T18:19:06.803Z,17.10
2018-03-14T18:21:33.090Z,17.93
2018-03-14T18:23:59.425Z,20.87
2018-03-14T18:26:27.230Z,17.77
2018-03-14T18:28:53.376Z,19.80
2018-03-14T18:31:19.562Z,16.67
2018-03-14T18:33:45.718Z,20.23
2018-03-14T18:36:11.778Z,18.63
2018-03-14T18:38:38.306Z,19.53
2018-03-14T18:41:04.593Z,18.13
2018-03-14T18:43:30.862Z,17.97
2018-03-14T18:45:57.636Z,20.33
2018-03-14T18:48:24.114Z,15.83
2018-03-14T18:50:50.295Z,19.33
2018-03-14T18:53:16.548Z,24.90
2018-03-14T18:55:46.655Z,20.63
2018-03-14T18:58:12.867Z,18.17
2018-03-14T19:00:43.019Z,25.40
2018-03-14T19:03:09.327Z,23.43
2018-03-14T19:05:36.312Z,26.37
2018-03-14T19:08:03.309Z,22.07
2018-03-14T19:10:29.471Z,21.00
2018-03-14T19:12:57.121Z,24.53
2018-03-14T19:15:24.903Z,26.30
2018-03-14T19:17:51.797Z,20.70
2018-03-14T19:20:17.963Z,24.13
2018-03-14T19:22:45.025Z,24.33
2018-03-14T19:25:12.871Z,26.07
2018-03-14T19:27:39.813Z,25.50
2018-03-14T19:30:06.780Z,23.83
2018-03-14T19:32:32.940Z,24.70
2018-03-14T19:34:59.133Z,20.03
2018-03-14T19:37:25.754Z,25.27
2018-03-14T19:39:51.889Z,23.00
2018-03-14T19:42:17.984Z,21.43
2018-03-14T19:44:45.034Z,21.90
2018-03-14T19:47:11.494Z,24.83
2018-03-14T19:49:37.724Z,21.90
2018-03-14T19:52:03.923Z,21.40
2018-03-14T19:54:30.137Z,23.90
2018-03-14T19:56:56.311Z,24.07
2018-03-14T19:59:23.143Z,31.67
2018-03-14T20:01:50.047Z,28.77
2018-03-14T20:04:16.850Z,24.27
2018-03-14T20:06:44.098Z,23.37
2018-03-14T20:09:10.343Z,22.30
2018-03-14T20:11:36.666Z,21.33
2018-03-14T20:14:03.612Z,24.80
2018-03-14T20:16:30.748Z,25.33
2018-03-14T20:18:57.064Z,19.07
2018-03-14T20:21:23.549Z,23.07
2018-03-14T20:23:50.546Z,23.20
2018-03-14T20:26:16.784Z,20.70
2018-03-14T20:28:42.995Z,23.67
2018-03-14T20:31:11.372Z,21.43
2018-03-14T20:33:37.517Z,19.17
2018-03-14T20:36:04.129Z,23.73
2018-03-14T20:38:30.218Z,22.80
2018-03-14T20:40:56.488Z,21.20
2018-03-14T20:43:23.636Z,20.30
2018-03-14T20:45:50.207Z,19.93
2018-03-14T20:48:16.511Z,20.10
2018-03-14T20:50:43.653Z,22.40
2018-03-14T20:53:09.790Z,20.40
2018-03-14T20:55:36.113Z,23.80
2018-03-14T20:58:02.428Z,22.63
2018-03-14T21:00:28.671Z,25.00
2018-03-14T21:02:55.247Z,38.53
2018-03-14T21:05:21.844Z,24.63
2018-03-14T21:07:48.016Z,21.00
2018-03-14T21:10:14.701Z,26.30
2018-03-14T21:12:41.772Z,19.20
2018-03-14T21:15:11.095Z,19.53
2018-03-14T21:17:39.747Z,22.40
2018-03-14T21:20:06.449Z,23.20
2018-03-14T21:22:32.659Z,21.50
2018-03-14T21:24:59.206Z,23.20
2018-03-14T21:27:27.385Z,26.17
2018-03-14T21:29:53.758Z,21.87
2018-03-14T21:32:20.283Z,19.60
2018-03-14T21:34:46.773Z,24.27
2018-03-14T21:37:12.929Z,21.40
2018-03-14T21:39:39.003Z,24.93
2018-03-14T21:42:06.225Z,22.67
2018-03-14T21:44:32.339Z,23.10
2018-03-14T21:46:58.508Z,24.73
2018-03-14T21:49:25.280Z,22.93
2018-03-14T21:51:52.599Z,26.70
2018-03-14T21:54:18.744Z,26.30
2018-03-14T21:56:46.876Z,23.83
2018-03-14T21:59:13.020Z,20.30
2018-03-14T22:01:40.169Z,26.10
2018-03-14T22:04:06.659Z,22.73
2018-03-14T22:06:32.825Z,28.90
2018-03-14T22:08:58.939Z,22.40
2018-03-14T22:11:26.000Z,23.73
2018-03-14T22:13:52.529Z,24.47
2018-03-14T22:16:19.165Z,21.40
2018-03-14T22:18:45.611Z,27.00
2018-03-14T22:21:12.383Z,21.57
2018-03-14T22:23:38.790Z,26.87
2018-03-14T22:26:05.298Z,23.10
2018-03-14T22:28:32.779Z,24.83
2018-03-14T22:30:59.188Z,24.70
2018-03-14T22:33:25.569Z,23.80
2018-03-14T22:35:51.873Z,25.17
2018-03-14T22:38:18.015Z,23.47
2018-03-14T22:40:44.366Z,24.27
2018-03-14T22:43:10.434Z,24.23
2018-03-14T22:45:37.603Z,26.13
2018-03-14T22:48:04.377Z,25.03
2018-03-14T22:50:30.517Z,26.83
2018-03-14T22:52:57.553Z,23.63
2018-03-14T22:55:24.105Z,25.50
2018-03-14T22:57:50.260Z,24.83
2018-03-14T23:00:18.072Z,24.67
2018-03-14T23:02:44.202Z,23.53
2018-03-14T23:05:10.372Z,22.80
2018-03-14T23:07:36.664Z,27.67
2018-03-14T23:10:02.883Z,27.93
2018-03-14T23:12:32.032Z,27.37
2018-03-14T23:14:58.310Z,24.70
2018-03-14T23:17:26.024Z,26.80
2018-03-14T23:19:52.210Z,23.70
2018-03-14T23:22:18.437Z,27.30
2018-03-14T23:24:45.353Z,21.70
2018-03-14T23:27:11.993Z,23.17
2018-03-14T23:29:38.329Z,27.10
2018-03-14T23:32:05.116Z,26.60
2018-03-14T23:34:33.972Z,27.57
2018-03-14T23:37:00.002Z,22.10
2018-03-14T23:39:26.185Z,28.10
2018-03-14T23:41:52.350Z,20.10
2018-03-14T23:44:18.458Z,24.00
2018-03-14T23:46:44.584Z,22.33
2018-03-14T23:49:11.732Z,24.50
2018-03-14T23:51:37.950Z,32.13
2018-03-14T23:54:04.392Z,23.33
2018-03-14T23:56:31.533Z,21.40
2018-03-14T23:58:57.758Z,23.03
